Time;durP1;ratioP1;P1;durP2;ratioP2;P2;SDS_P1;SDS_P2;PMS_P1;PMS_P2;Temp;Humidity;BMP_temperature;BMP_pressure;BME280_temperature;BME280_humidity;BME280_pressure;Samples;Min_cycle;Max_cycle;Signal;HPM_P1;HPM_P2
2021/03/10 00:00:47;;;;;;;13.53;10.27;;;;;;;1.90;80.21;98112.56;5006424;28;20235;-70
2021/03/10 00:03:14;;;;;;;13.13;11.33;;;;;;;2.01;79.52;98106.59;5004673;28;20660;-70
2021/03/10 00:05:41;;;;;;;11.77;10.57;;;;;;;1.80;80.98;98111.53;5002328;28;20751;-70
2021/03/10 00:08:08;;;;;;;13.60;11.10;;;;;;;1.89;80.57;98103.06;5006319;28;20818;-70
2021/03/10 00:10:35;;;;;;;12.50;11.20;;;;;;;1.98;79.92;98109.44;5008351;28;20200;-71
2021/03/10 00:13:03;;;;;;;12.60;11.30;;;;;;;1.92;80.38;98108.06;5009767;28;20201;-70
2021/03/10 00:15:30;;;;;;;12.33;11.13;;;;;;;1.96;80.83;98103.47;5010164;28;20220;-69
2021/03/10 00:17:58;;;;;;;11.77;10.37;;;;;;;2.05;80.03;98110.66;5006274;28;20716;-71
2021/03/10 00:20:25;;;;;;;11.93;10.73;;;;;;;1.94;81.07;98105.34;5010076;28;20215;-70
2021/03/10 00:22:52;;;;;;;13.53;11.83;;;;;;;1.92;81.02;98102.84;5003824;28;20217;-70
2021/03/10 00:25:20;;;;;;;12.03;10.73;;;;;;;1.90;81.34;98103.91;5007110;28;20208;-70
2021/03/10 00:27:46;;;;;;;13.13;11.50;;;;;;;1.87;81.57;98103.16;5005979;28;20742;-70
2021/03/10 00:30:16;;;;;;;13.47;11.20;;;;;;;1.98;81.64;98106.81;5007199;28;20208;-69
2021/03/10 00:32:42;;;;;;;14.53;12.93;;;;;;;1.93;82.42;98104.50;5006094;28;20685;-70
2021/03/10 00:35:28;;;;;;;13.63;12.33;;;;;;;2.00;82.09;98113.59;5007513;28;20212;-70
2021/03/10 00:37:57;;;;;;;13.30;11.10;;;;;;;2.00;81.88;98104.94;5008648;28;20307;-70
2021/03/10 00:40:24;;;;;;;14.27;10.93;;;;;;;2.11;81.59;98114.63;5006260;28;20208;-70
2021/03/10 00:42:52;;;;;;;13.97;11.87;;;;;;;2.02;82.23;98103.03;5006327;28;20577;-71
2021/03/10 00:45:19;;;;;;;12.80;11.50;;;;;;;1.93;82.27;98104.50;5004736;28;20585;-70
2021/03/10 00:47:46;;;;;;;12.20;11.00;;;;;;;1.96;82.58;98104.28;5006661;28;20879;-71
2021/03/10 00:50:15;;;;;;;13.33;11.97;;;;;;;1.92;82.69;98097.63;5009429;28;20240;-70
2021/03/10 00:52:43;;;;;;;12.63;11.40;;;;;;;2.00;82.82;98102.31;5008700;28;20248;-68
2021/03/10 00:55:12;;;;;;;14.07;11.93;;;;;;;1.93;83.43;98098.47;5004851;28;20539;-70
2021/03/10 00:57:39;;;;;;;14.00;11.90;;;;;;;1.96;83.40;98098.25;5010989;28;20235;-70
2021/03/10 01:00:09;;;;;;;13.27;11.97;;;;;;;1.95;83.41;98096.56;5004533;28;20205;-70
2021/03/10 01:02:35;;;;;;;13.27;11.90;;;;;;;1.85;83.93;98094.56;5004322;28;20224;-69
2021/03/10 01:05:03;;;;;;;11.83;10.63;;;;;;;2.00;83.54;98099.69;4999586;28;20457;-70
2021/03/10 01:07:30;;;;;;;12.07;10.97;;;;;;;1.92;83.80;98097.63;5009901;28;20235;-70
2021/03/10 01:09:58;;;;;;;13.17;11.87;;;;;;;1.84;84.52;98094.69;5002097;28;20586;-70
2021/03/10 01:12:25;;;;;;;12.07;10.87;;;;;;;1.85;84.56;98093.75;5006008;28;20207;-70
2021/03/10 01:14:52;;;;;;;12.17;10.90;;;;;;;1.81;84.61;98098.34;5010008;28;20211;-70
2021/03/10 01:17:19;;;;;;;13.33;11.83;;;;;;;1.82;85.19;98084.34;5009199;28;21201;-70
2021/03/10 01:19:46;;;;;;;14.60;11.70;;;;;;;1.84;85.15;98094.69;5010298;28;20213;-70
2021/03/10 01:22:13;;;;;;;13.10;11.80;;;;;;;1.84;85.21;98092.09;5007746;28;20236;-70
2021/03/10 01:24:41;;;;;;;13.50;12.20;;;;;;;1.92;84.81;98092.38;5011481;28;20392;-70
2021/03/10 01:27:09;;;;;;;14.63;11.60;;;;;;;2.06;84.40;98095.81;5009308;28;20836;-70
2021/03/10 01:29:36;;;;;;;13.27;11.60;;;;;;;2.00;84.26;98089.25;5009675;28;20215;-69
2021/03/10 01:32:03;;;;;;;13.57;12.23;;;;;;;1.96;84.40;98093.03;5009135;28;20420;-71
2021/03/10 01:34:30;;;;;;;13.60;12.20;;;;;;;1.93;85.19;98093.22;5010790;28;20254;-70
2021/03/10 01:36:57;;;;;;;14.30;12.60;;;;;;;1.94;84.88;98092.28;5006631;28;20240;-69
2021/03/10 01:39:24;;;;;;;13.93;12.23;;;;;;;2.00;84.86;98100.53;5010311;28;20564;-70
2021/03/10 01:41:51;;;;;;;14.30;12.00;;;;;;;1.96;85.01;98093.84;5010578;28;20293;-70
2021/03/10 01:44:19;;;;;;;13.60;12.17;;;;;;;1.97;85.13;98092.06;5007519;28;20219;-68
2021/03/10 01:46:47;;;;;;;13.63;12.20;;;;;;;1.95;85.21;98086.94;5011263;28;20736;-70
2021/03/10 01:49:14;;;;;;;13.63;12.17;;;;;;;1.98;84.46;98091.13;5008900;28;20201;-70
2021/03/10 01:51:41;;;;;;;14.33;12.87;;;;;;;1.96;85.76;98099.06;5005749;28;20240;-70
2021/03/10 01:54:08;;;;;;;14.33;12.47;;;;;;;1.84;85.79;98087.69;5013911;28;20216;-71
2021/03/10 01:56:35;;;;;;;16.30;13.07;;;;;;;1.85;85.72;98091.97;5009923;28;20212;-70
2021/03/10 01:59:02;;;;;;;12.87;11.43;;;;;;;1.82;85.92;98091.34;5012785;28;20549;-70
2021/03/10 02:01:30;;;;;;;14.90;13.30;;;;;;;1.92;86.05;98087.16;5006240;28;20229;-70
2021/03/10 02:04:03;;;;;;;13.73;12.17;;;;;;;1.94;86.01;98082.66;5011095;28;20213;-70
2021/03/10 02:06:38;;;;;;;13.13;11.73;;;;;;;1.85;85.43;98086.75;5014561;28;20262;-69
2021/03/10 02:09:09;;;;;;;13.83;12.53;;;;;;;1.71;86.43;98082.50;5016538;28;20375;-70
2021/03/10 02:11:37;;;;;;;12.57;11.27;;;;;;;1.92;86.23;98092.38;5011012;28;20200;-70
2021/03/10 02:14:13;;;;;;;13.20;11.80;;;;;;;1.88;85.59;98086.53;5017242;28;20200;-70
2021/03/10 02:16:46;;;;;;;13.60;12.30;;;;;;;1.82;86.67;98086.94;5012249;28;20227;-69
2021/03/10 02:19:34;;;;;;;13.17;11.87;;;;;;;1.86;85.81;98082.34;5015002;28;20239;-70
2021/03/10 02:22:05;;;;;;;14.73;13.17;;;;;;;1.93;85.46;98075.75;5012646;28;20716;-69
2021/03/10 02:24:43;;;;;;;14.40;12.90;;;;;;;1.84;86.22;98068.56;5012588;28;20201;-70
2021/03/10 02:27:33;;;;;;;13.37;11.23;;;;;;;2.02;85.49;98067.25;5013941;28;20407;-70
2021/03/10 02:30:05;;;;;;;13.83;12.50;;;;;;;1.88;86.54;98070.03;5013240;28;20670;-69
2021/03/10 02:32:33;;;;;;;15.70;14.00;;;;;;;1.75;87.30;98069.22;5012008;28;20202;-70
2021/03/10 02:35:01;;;;;;;15.40;13.77;;;;;;;1.81;87.89;98074.00;5015473;28;20250;-69
2021/03/10 02:37:29;;;;;;;15.43;13.87;;;;;;;1.87;87.37;98082.25;5015047;28;20267;-69
2021/03/10 02:39:56;;;;;;;14.67;13.17;;;;;;;1.84;87.97;98090.28;5013415;28;20727;-69
2021/03/10 02:42:24;;;;;;;15.10;13.60;;;;;;;2.02;87.52;98093.41;5013652;28;20217;-70
2021/03/10 02:44:52;;;;;;;15.70;13.97;;;;;;;2.07;87.00;98095.72;5016576;28;20710;-70
2021/03/10 02:47:19;;;;;;;15.43;13.83;;;;;;;1.98;89.06;98084.09;5015149;28;20224;-70
2021/03/10 02:49:46;;;;;;;17.23;14.87;;;;;;;2.21;88.05;98091.28;5014877;28;20213;-70
2021/03/10 02:52:14;;;;;;;16.57;14.80;;;;;;;2.22;86.89;98085.94;5015898;28;20546;-70
2021/03/10 02:54:42;;;;;;;15.90;14.30;;;;;;;2.13;87.52;98091.84;5012639;28;20699;-70
2021/03/10 02:57:09;;;;;;;14.90;13.30;;;;;;;2.14;88.77;98093.50;5014735;28;20589;-69
2021/03/10 02:59:36;;;;;;;16.33;14.57;;;;;;;2.22;89.89;98095.56;5013511;28;20227;-71
2021/03/10 03:02:04;;;;;;;15.87;14.27;;;;;;;2.11;91.17;98088.50;5012599;28;20224;-70
2021/03/10 03:04:31;;;;;;;15.23;13.53;;;;;;;2.01;93.00;98091.72;5012667;28;20209;-69
2021/03/10 03:07:17;;;;;;;16.03;13.73;;;;;;;2.02;95.01;98095.19;5013503;28;20565;-69
2021/03/10 03:09:43;;;;;;;16.73;14.87;;;;;;;1.72;97.18;98092.00;5011960;28;20293;-70
2021/03/10 03:12:12;;;;;;;16.40;14.33;;;;;;;1.66;99.04;98105.47;5013299;28;20204;-70
2021/03/10 03:14:41;;;;;;;17.43;15.17;;;;;;;1.72;99.43;98091.16;5016035;28;20733;-71
2021/03/10 03:17:10;;;;;;;17.50;15.57;;;;;;;1.63;100.00;98097.84;5009245;28;20472;-70
2021/03/10 03:19:37;;;;;;;17.20;15.40;;;;;;;1.69;99.70;98097.41;5011988;28;20870;-69
2021/03/10 03:22:05;;;;;;;17.33;15.47;;;;;;;1.61;100.00;98094.50;5012683;28;20328;-70
2021/03/10 03:24:32;;;;;;;20.17;15.90;;;;;;;1.66;100.00;98095.00;5011738;28;20700;-70
2021/03/10 03:27:00;;;;;;;19.93;17.83;;;;;;;1.58;100.00;98100.78;5012686;28;20249;-68
2021/03/10 03:29:28;;;;;;;18.90;16.90;;;;;;;1.67;100.00;98104.53;5015520;28;20205;-70
2021/03/10 03:31:55;;;;;;;20.03;17.80;;;;;;;1.69;100.00;98105.25;5010136;28;20205;-70
2021/03/10 03:34:24;;;;;;;21.60;17.43;;;;;;;1.79;100.00;98113.31;5012129;28;20481;-69
2021/03/10 03:36:51;;;;;;;20.67;18.50;;;;;;;1.50;100.00;98110.88;5007253;28;20332;-69
2021/03/10 03:39:18;;;;;;;21.47;18.97;;;;;;;1.46;100.00;98106.81;5012093;28;20244;-70
2021/03/10 03:41:46;;;;;;;19.57;17.47;;;;;;;1.46;100.00;98101.59;5011713;28;20247;-70
2021/03/10 03:44:13;;;;;;;24.47;19.30;;;;;;;1.33;100.00;98104.22;5010910;28;20216;-70
2021/03/10 03:46:41;;;;;;;22.90;20.30;;;;;;;1.31;100.00;98108.69;5011631;28;20205;-70
2021/03/10 03:49:08;;;;;;;23.53;20.90;;;;;;;1.14;100.00;98102.81;5000683;28;20605;-70
2021/03/10 03:51:36;;;;;;;25.47;20.23;;;;;;;1.18;100.00;98108.69;5009187;28;20687;-70
2021/03/10 03:54:04;;;;;;;22.10;18.73;;;;;;;1.12;100.00;98107.31;5009472;28;20205;-70
2021/03/10 03:56:32;;;;;;;24.27;21.33;;;;;;;1.09;100.00;98112.72;5009657;28;20247;-70
2021/03/10 03:58:59;;;;;;;26.30;20.77;;;;;;;1.06;100.00;98110.31;5009965;28;20205;-70
2021/03/10 04:01:26;;;;;;;22.20;19.53;;;;;;;1.09;100.00;98111.88;5005287;28;20321;-71
2021/03/10 04:03:54;;;;;;;22.00;19.53;;;;;;;1.04;100.00;98127.88;5011849;28;20215;-71
2021/03/10 04:06:20;;;;;;;21.63;19.17;;;;;;;1.13;100.00;98132.47;5012165;28;20215;-71
2021/03/10 04:08:48;;;;;;;24.20;19.50;;;;;;;1.10;100.00;98131.81;5014813;28;20359;-72
2021/03/10 04:11:17;;;;;;;22.03;18.53;;;;;;;1.15;100.00;98132.38;5011849;28;20576;-71
2021/03/10 04:13:44;;;;;;;24.47;19.70;;;;;;;1.17;100.00;98127.03;5014372;28;20215;-71
2021/03/10 04:16:11;;;;;;;20.63;18.40;;;;;;;1.19;100.00;98135.59;5014340;28;20211;-71
2021/03/10 04:18:38;;;;;;;25.73;20.87;;;;;;;1.12;100.00;98133.41;5009480;28;20294;-71
2021/03/10 04:21:06;;;;;;;26.70;22.43;;;;;;;1.17;100.00;98135.72;5010309;28;20749;-71
2021/03/10 04:23:33;;;;;;;24.23;20.90;;;;;;;1.22;100.00;98145.84;5010337;28;20744;-71
2021/03/10 04:26:01;;;;;;;23.97;21.40;;;;;;;1.19;100.00;98146.06;5008865;28;20200;-70
2021/03/10 04:28:28;;;;;;;22.63;20.30;;;;;;;1.12;100.00;98151.69;5011164;28;20221;-71
2021/03/10 04:30:55;;;;;;;28.33;22.37;;;;;;;1.07;100.00;98156.38;5010139;28;20299;-71
2021/03/10 04:33:22;;;;;;;24.70;21.40;;;;;;;1.14;100.00;98147.19;5007535;28;20211;-71
2021/03/10 04:35:49;;;;;;;25.07;20.63;;;;;;;1.10;100.00;98143.13;5011696;28;20216;-71
2021/03/10 04:38:28;;;;;;;25.03;21.10;;;;;;;1.24;100.00;98142.22;5012774;28;20510;-71
2021/03/10 04:40:55;;;;;;;23.77;21.27;;;;;;;1.24;100.00;98139.59;5008677;28;20670;-72
2021/03/10 04:43:23;;;;;;;24.03;21.10;;;;;;;1.18;100.00;98137.41;5012568;28;20235;-71
2021/03/10 04:45:50;;;;;;;23.70;20.90;;;;;;;1.18;100.00;98140.00;5009753;28;20680;-71
2021/03/10 04:48:17;;;;;;;25.83;21.47;;;;;;;1.25;100.00;98143.88;5010841;28;20247;-71
2021/03/10 04:50:44;;;;;;;28.43;23.40;;;;;;;1.16;100.00;98134.06;5005693;28;20213;-71
2021/03/10 04:53:11;;;;;;;25.90;22.17;;;;;;;1.12;100.00;98137.78;5011338;28;20212;-71
2021/03/10 04:55:38;;;;;;;24.37;21.13;;;;;;;1.17;100.00;98137.50;5005811;28;20716;-69
2021/03/10 04:58:06;;;;;;;23.30;20.83;;;;;;;1.14;100.00;98139.38;5012892;28;20735;-71
2021/03/10 05:00:34;;;;;;;23.17;20.77;;;;;;;1.22;100.00;98143.25;5010968;28;20354;-71
2021/03/10 05:03:00;;;;;;;26.10;23.33;;;;;;;1.14;100.00;98149.81;5010882;28;20804;-69
2021/03/10 05:05:28;;;;;;;22.17;19.80;;;;;;;1.13;100.00;98158.56;5011728;28;20211;-71
2021/03/10 05:07:55;;;;;;;24.90;20.70;;;;;;;1.11;100.00;98142.19;5009518;28;20729;-71
2021/03/10 05:10:22;;;;;;;24.73;22.13;;;;;;;1.23;100.00;98147.53;5011794;28;20204;-69
2021/03/10 05:12:49;;;;;;;21.40;18.87;;;;;;;1.36;100.00;98153.63;5007223;28;20210;-71
2021/03/10 05:15:16;;;;;;;26.03;20.67;;;;;;;1.34;100.00;98150.28;5003164;28;20208;-70
2021/03/10 05:17:44;;;;;;;22.73;20.17;;;;;;;1.24;100.00;98151.81;5007579;28;20233;-69
2021/03/10 05:20:12;;;;;;;23.63;21.23;;;;;;;1.26;100.00;98144.72;5016570;28;20588;-69
2021/03/10 05:22:40;;;;;;;25.37;21.73;;;;;;;1.37;100.00;98142.25;5004738;28;20432;-70
2021/03/10 05:25:08;;;;;;;24.00;20.77;;;;;;;1.37;100.00;98147.47;5012179;28;20209;-69
2021/03/10 05:27:36;;;;;;;23.33;20.87;;;;;;;1.38;100.00;98130.84;5007776;28;20224;-69
2021/03/10 05:30:05;;;;;;;24.37;21.60;;;;;;;1.35;100.00;98145.88;5011580;28;20227;-70
2021/03/10 05:32:32;;;;;;;23.30;20.87;;;;;;;1.30;100.00;98148.78;5008627;28;20212;-70
2021/03/10 05:35:00;;;;;;;24.97;21.70;;;;;;;1.28;100.00;98151.50;5010500;28;20208;-69
2021/03/10 05:37:27;;;;;;;26.57;21.83;;;;;;;1.24;100.00;98157.88;5012379;28;20235;-69
2021/03/10 05:39:54;;;;;;;23.73;21.20;;;;;;;1.26;100.00;98169.06;5015827;28;20205;-71
2021/03/10 05:42:21;;;;;;;23.90;21.40;;;;;;;1.24;100.00;98157.03;5015881;28;20287;-69
2021/03/10 05:44:50;;;;;;;23.07;20.27;;;;;;;1.35;100.00;98156.31;5015429;28;20213;-70
2021/03/10 05:47:18;;;;;;;25.70;21.43;;;;;;;1.21;100.00;98159.84;5017297;28;20252;-71
2021/03/10 05:49:46;;;;;;;24.13;21.53;;;;;;;1.21;100.00;98165.91;5013388;28;20205;-69
2021/03/10 05:52:16;;;;;;;24.17;21.70;;;;;;;1.35;100.00;98164.16;5010313;28;20236;-71
2021/03/10 05:54:44;;;;;;;29.50;26.33;;;;;;;1.37;100.00;98162.28;5017344;28;20683;-72
2021/03/10 05:57:11;;;;;;;28.23;24.73;;;;;;;1.33;100.00;98161.66;5010797;28;20707;-70
2021/03/10 05:59:38;;;;;;;26.60;23.53;;;;;;;1.27;100.00;98160.28;5012328;28;20208;-71
2021/03/10 06:02:05;;;;;;;25.57;22.43;;;;;;;1.30;100.00;98169.66;5013499;28;20302;-71
2021/03/10 06:04:40;;;;;;;27.80;24.80;;;;;;;1.32;100.00;98173.03;5016867;28;20204;-72
2021/03/10 06:07:07;;;;;;;29.03;26.07;;;;;;;1.34;100.00;98171.16;5017147;28;20337;-71
2021/03/10 06:09:38;;;;;;;26.60;23.77;;;;;;;1.24;100.00;98178.75;5010399;28;20263;-71
2021/03/10 06:12:06;;;;;;;28.80;24.47;;;;;;;1.31;100.00;98168.72;5014113;28;20205;-69
2021/03/10 06:14:33;;;;;;;33.20;26.50;;;;;;;1.32;100.00;98180.03;5013634;28;20201;-71
2021/03/10 06:17:02;;;;;;;27.90;24.10;;;;;;;1.35;100.00;98172.84;5016220;28;20220;-71
2021/03/10 06:19:29;;;;;;;29.23;25.97;;;;;;;1.70;100.00;98179.25;5011625;28;20204;-71
2021/03/10 06:21:56;;;;;;;25.47;22.00;;;;;;;1.76;100.00;98167.56;5015777;28;20588;-71
2021/03/10 06:24:33;;;;;;;29.03;25.03;;;;;;;1.73;100.00;98182.50;5012850;28;20732;-72
2021/03/10 06:27:01;;;;;;;24.40;21.80;;;;;;;1.64;100.00;98183.09;5012043;28;20317;-70
2021/03/10 06:29:28;;;;;;;23.73;21.20;;;;;;;1.64;100.00;98182.28;5014899;28;20231;-71
2021/03/10 06:32:02;;;;;;;27.50;22.63;;;;;;;1.59;100.00;98188.66;5012124;28;20208;-71
2021/03/10 06:34:30;;;;;;;24.07;21.57;;;;;;;1.57;100.00;98184.47;5015069;28;20274;-72
2021/03/10 06:36:58;;;;;;;26.00;21.57;;;;;;;1.82;100.00;98188.06;5010473;28;20240;-71
2021/03/10 06:39:26;;;;;;;26.77;22.23;;;;;;;1.72;100.00;98195.66;5014155;28;20204;-71
2021/03/10 06:41:54;;;;;;;26.20;23.47;;;;;;;1.64;100.00;98198.78;5016595;28;20229;-71
2021/03/10 06:44:23;;;;;;;34.73;30.07;;;;;;;1.58;100.00;98200.03;5015950;28;20378;-71
2021/03/10 06:46:52;;;;;;;36.50;30.40;;;;;;;1.76;100.00;98207.59;5011069;28;21179;-71
2021/03/10 06:49:19;;;;;;;28.23;24.47;;;;;;;1.84;100.00;98205.28;5014374;28;20209;-72
2021/03/10 06:51:53;;;;;;;28.23;24.27;;;;;;;1.71;100.00;98210.53;5011283;28;20217;-70
2021/03/10 06:54:20;;;;;;;26.30;22.83;;;;;;;1.85;100.00;98224.44;5015852;28;20695;-71
2021/03/10 06:56:58;;;;;;;23.37;20.87;;;;;;;2.07;100.00;98223.81;5013282;28;20220;-71
2021/03/10 06:59:26;;;;;;;23.63;20.53;;;;;;;2.06;100.00;98227.38;5014589;28;20277;-71
2021/03/10 07:01:53;;;;;;;26.00;21.97;;;;;;;1.81;100.00;98233.41;5016868;28;20233;-71
2021/03/10 07:04:21;;;;;;;25.60;20.97;;;;;;;1.99;100.00;98240.00;5016197;28;20200;-71
2021/03/10 07:06:49;;;;;;;23.23;20.67;;;;;;;2.04;100.00;98234.47;5014355;28;20799;-71
2021/03/10 07:09:17;;;;;;;23.60;21.00;;;;;;;2.31;100.00;98239.59;5012761;28;20680;-72
2021/03/10 07:11:45;;;;;;;23.90;21.33;;;;;;;2.17;100.00;98237.91;5016295;28;20539;-70
2021/03/10 07:14:12;;;;;;;41.37;29.57;;;;;;;2.13;100.00;98235.63;5018875;28;20295;-71
2021/03/10 07:16:41;;;;;;;34.80;27.40;;;;;;;2.45;100.00;98237.78;5013164;28;20214;-72
2021/03/10 07:19:09;;;;;;;36.17;26.00;;;;;;;2.29;100.00;98238.03;5016196;28;20740;-71
2021/03/10 07:21:39;;;;;;;29.33;25.03;;;;;;;2.37;100.00;98251.44;5012057;28;20201;-71
2021/03/10 07:24:13;;;;;;;33.67;26.03;;;;;;;2.53;100.00;98239.88;5016697;28;20220;-71
2021/03/10 07:26:41;;;;;;;27.20;23.33;;;;;;;2.61;100.00;98245.41;5011590;28;20703;-71
2021/03/10 07:29:08;;;;;;;29.93;25.40;;;;;;;2.75;100.00;98247.91;5016357;28;20252;-70
2021/03/10 07:31:36;;;;;;;38.47;29.17;;;;;;;2.76;100.00;98251.34;5015271;28;20673;-71
2021/03/10 07:34:04;;;;;;;24.80;21.70;;;;;;;2.88;100.00;98254.91;5012140;28;20259;-71
2021/03/10 07:36:36;;;;;;;30.57;25.13;;;;;;;2.85;100.00;98255.97;5015608;28;20219;-72
2021/03/10 07:39:04;;;;;;;26.00;22.43;;;;;;;3.05;100.00;98264.16;5013149;28;20215;-71
2021/03/10 07:41:34;;;;;;;29.10;23.97;;;;;;;2.96;100.00;98259.59;5015810;28;20209;-72
2021/03/10 07:44:01;;;;;;;29.97;23.90;;;;;;;3.16;100.00;98264.22;5013886;28;20254;-71
2021/03/10 07:46:31;;;;;;;27.30;23.13;;;;;;;3.30;100.00;98263.22;5013990;28;20585;-71
2021/03/10 07:48:59;;;;;;;26.73;22.67;;;;;;;3.24;100.00;98265.47;5016556;28;20333;-72
2021/03/10 07:51:30;;;;;;;25.87;22.57;;;;;;;3.12;100.00;98273.25;5016916;28;20224;-71
2021/03/10 07:53:58;;;;;;;28.00;22.60;;;;;;;3.04;100.00;98268.59;5011983;28;20204;-70
2021/03/10 07:56:26;;;;;;;23.70;20.53;;;;;;;3.24;100.00;98270.72;5014982;28;20205;-71
2021/03/10 07:58:53;;;;;;;23.73;20.80;;;;;;;3.27;100.00;98267.88;5016917;28;20252;-69
2021/03/10 08:01:20;;;;;;;27.63;22.03;;;;;;;3.51;100.00;98269.63;5014128;28;20538;-71
2021/03/10 08:03:47;;;;;;;26.50;22.23;;;;;;;3.52;100.00;98272.16;5014395;28;20225;-71
2021/03/10 08:06:14;;;;;;;24.63;21.20;;;;;;;3.38;100.00;98277.56;5016699;28;20205;-69
2021/03/10 08:08:44;;;;;;;26.93;22.23;;;;;;;3.37;100.00;98281.13;5013625;28;20636;-71
2021/03/10 08:11:14;;;;;;;27.10;22.33;;;;;;;3.62;100.00;98282.81;5014060;28;20216;-71
2021/03/10 08:13:41;;;;;;;25.60;22.63;;;;;;;3.60;100.00;98284.72;5015444;28;20205;-71
2021/03/10 08:16:09;;;;;;;26.27;21.63;;;;;;;3.60;100.00;98288.16;5010402;28;20455;-72
2021/03/10 08:18:39;;;;;;;26.93;22.03;;;;;;;3.57;98.73;98296.25;5012990;28;20223;-70
2021/03/10 08:21:08;;;;;;;26.60;23.37;;;;;;;3.45;99.19;98284.03;5011379;28;20701;-72
2021/03/10 08:23:35;;;;;;;29.90;25.53;;;;;;;3.48;99.39;98289.06;5014788;28;20231;-71
2021/03/10 08:26:04;;;;;;;25.63;23.00;;;;;;;3.40;100.00;98287.00;5014495;28;20687;-71
2021/03/10 08:28:35;;;;;;;27.83;24.83;;;;;;;3.58;99.69;98292.66;5010913;28;20219;-71
2021/03/10 08:31:03;;;;;;;27.90;24.00;;;;;;;3.73;99.17;98295.09;5016250;28;20531;-72
2021/03/10 08:33:31;;;;;;;32.20;27.00;;;;;;;3.55;98.36;98292.03;5012790;28;20208;-71
2021/03/10 08:35:59;;;;;;;29.07;23.53;;;;;;;3.71;98.48;98289.13;5013842;28;20204;-71
2021/03/10 08:38:31;;;;;;;31.40;25.83;;;;;;;3.60;97.83;98290.78;5013501;28;20231;-69
2021/03/10 08:41:06;;;;;;;31.20;26.20;;;;;;;3.88;97.87;98287.88;5016089;28;20232;-70
2021/03/10 08:43:33;;;;;;;27.57;22.60;;;;;;;4.13;94.94;98291.31;5013776;28;20219;-72
2021/03/10 08:46:01;;;;;;;29.83;25.57;;;;;;;4.16;92.63;98285.84;5013345;28;20197;-69
2021/03/10 08:48:33;;;;;;;39.30;33.07;;;;;;;3.95;93.10;98283.84;5015674;28;20239;-71
2021/03/10 08:51:02;;;;;;;26.03;22.27;;;;;;;3.95;93.62;98286.47;5012864;28;20202;-69
2021/03/10 08:53:29;;;;;;;30.83;23.20;;;;;;;4.13;92.11;98293.94;5016460;28;20205;-70
2021/03/10 08:56:06;;;;;;;31.83;24.07;;;;;;;4.17;92.32;98295.38;5015119;28;20208;-71
2021/03/10 08:58:33;;;;;;;28.47;23.83;;;;;;;4.26;90.47;98284.16;5015008;28;20220;-71
2021/03/10 09:01:12;;;;;;;49.33;34.73;;;;;;;4.10;91.22;98288.91;5014464;28;20208;-71
2021/03/10 09:03:43;;;;;;;30.27;24.70;;;;;;;4.42;89.96;98283.84;5011475;28;20656;-71
2021/03/10 09:06:10;;;;;;;31.10;24.70;;;;;;;4.34;88.33;98291.47;5012623;28;20216;-71
2021/03/10 09:08:37;;;;;;;31.50;25.10;;;;;;;4.25;89.77;98290.38;5016258;28;20603;-71
2021/03/10 09:11:04;;;;;;;29.70;24.03;;;;;;;4.37;88.71;98290.41;5011682;28;20216;-71
2021/03/10 09:13:32;;;;;;;41.00;32.60;;;;;;;4.71;87.95;98288.63;5019017;28;20412;-71
2021/03/10 09:16:08;;;;;;;29.57;26.03;;;;;;;4.87;87.65;98283.03;5012322;28;20213;-71
2021/03/10 09:18:36;;;;;;;27.40;21.57;;;;;;;4.57;85.62;98288.88;5014546;28;20536;-71
2021/03/10 09:21:05;;;;;;;26.17;21.73;;;;;;;4.84;85.30;98291.13;5012943;28;20432;-70
2021/03/10 09:23:32;;;;;;;28.00;22.57;;;;;;;4.64;83.99;98285.63;5012119;28;20311;-72
2021/03/10 09:25:59;;;;;;;25.77;21.63;;;;;;;4.82;83.93;98290.44;5015071;28;20224;-70
2021/03/10 09:28:34;;;;;;;27.63;22.27;;;;;;;4.83;84.09;98289.47;5013675;28;20235;-70
2021/03/10 09:31:12;;;;;;;23.13;20.47;;;;;;;4.98;82.96;98286.59;5014346;28;20299;-71
2021/03/10 09:33:40;;;;;;;24.73;21.70;;;;;;;5.20;80.31;98285.72;5009459;28;20205;-70
2021/03/10 09:36:07;;;;;;;24.43;20.53;;;;;;;5.05;80.82;98288.63;5010007;28;20205;-70
2021/03/10 09:38:35;;;;;;;27.10;20.37;;;;;;;5.21;81.34;98292.63;5012607;28;20728;-71
2021/03/10 09:41:03;;;;;;;24.57;21.43;;;;;;;5.24;81.25;98288.94;5010011;28;20634;-70
2021/03/10 09:43:32;;;;;;;22.27;18.73;;;;;;;5.38;77.87;98299.16;5011352;28;20586;-70
2021/03/10 09:46:02;;;;;;;24.77;19.43;;;;;;;5.39;76.28;98294.75;5012629;28;20296;-68
2021/03/10 09:48:31;;;;;;;19.67;17.40;;;;;;;5.43;76.24;98297.00;5014928;28;20256;-71
2021/03/10 09:51:04;;;;;;;22.97;19.37;;;;;;;5.42;75.40;98294.50;5012657;28;20853;-69
2021/03/10 09:53:31;;;;;;;21.17;17.33;;;;;;;5.24;75.73;98291.56;5014798;28;20208;-70
2021/03/10 09:56:06;;;;;;;20.30;17.33;;;;;;;5.16;74.98;98297.44;5013676;28;20211;-71
2021/03/10 09:58:45;;;;;;;21.17;18.67;;;;;;;5.15;75.95;98304.50;5013225;28;20228;-70
2021/03/10 10:01:13;;;;;;;25.00;19.40;;;;;;;5.15;76.57;98298.38;5011149;28;20229;-71
2021/03/10 10:03:40;;;;;;;22.27;18.73;;;;;;;5.17;74.50;98306.97;5017969;28;20255;-70
2021/03/10 10:06:08;;;;;;;22.53;19.00;;;;;;;5.07;74.00;98299.84;5013053;28;20292;-71
2021/03/10 10:08:35;;;;;;;19.83;17.13;;;;;;;5.07;73.97;98305.09;5015473;28;20275;-70
2021/03/10 10:11:03;;;;;;;21.40;17.90;;;;;;;5.28;72.61;98298.25;5010192;28;20270;-70
2021/03/10 10:13:42;;;;;;;20.17;17.23;;;;;;;5.41;72.32;98301.53;5011936;28;20589;-71
2021/03/10 10:16:10;;;;;;;22.47;18.83;;;;;;;5.47;72.12;98295.78;5012971;28;20205;-70
2021/03/10 10:18:42;;;;;;;22.17;17.93;;;;;;;5.70;69.46;98300.16;5009644;28;20809;-70
2021/03/10 10:21:09;;;;;;;20.33;17.60;;;;;;;5.52;69.90;98305.13;5012053;28;20202;-70
2021/03/10 10:23:37;;;;;;;20.83;16.87;;;;;;;5.33;68.08;98296.94;5010787;28;20491;-70
2021/03/10 10:26:04;;;;;;;17.90;16.00;;;;;;;5.53;67.47;98298.91;5011061;28;20203;-70
2021/03/10 10:28:31;;;;;;;17.50;15.43;;;;;;;5.50;66.66;98295.56;5017559;28;20224;-71
2021/03/10 10:30:59;;;;;;;19.37;15.10;;;;;;;5.61;65.09;98299.13;5018879;28;20228;-68
2021/03/10 10:33:26;;;;;;;17.17;15.40;;;;;;;5.54;65.45;98298.78;5014972;28;20203;-70
2021/03/10 10:35:55;;;;;;;20.53;16.23;;;;;;;5.67;64.64;98290.72;5015107;28;20209;-70
2021/03/10 10:38:22;;;;;;;16.47;14.77;;;;;;;5.89;64.34;98294.22;5018286;28;20231;-70
2021/03/10 10:40:49;;;;;;;16.47;14.20;;;;;;;5.98;62.87;98298.72;5015833;28;20715;-70
2021/03/10 10:43:16;;;;;;;17.93;13.90;;;;;;;5.83;63.01;98292.09;5017116;28;20248;-69
2021/03/10 10:45:45;;;;;;;14.50;12.93;;;;;;;5.51;63.57;98293.75;5015768;28;20219;-70
2021/03/10 10:48:12;;;;;;;18.60;15.70;;;;;;;5.97;63.59;98299.69;5016532;28;20225;-70
2021/03/10 10:50:39;;;;;;;15.10;13.47;;;;;;;5.86;61.23;98292.66;5017552;28;20219;-69
2021/03/10 10:53:07;;;;;;;14.43;12.70;;;;;;;5.79;59.65;98300.22;5010228;28;20279;-70
2021/03/10 10:55:33;;;;;;;15.13;11.83;;;;;;;5.67;60.16;98301.25;5017478;28;20211;-70
2021/03/10 10:58:01;;;;;;;13.47;12.07;;;;;;;5.96;60.05;98291.91;5019159;28;20220;-69
2021/03/10 11:00:28;;;;;;;16.00;14.17;;;;;;;5.74;60.00;98288.44;5019468;28;20196;-70
2021/03/10 11:02:55;;;;;;;15.83;14.20;;;;;;;6.20;59.60;98287.25;5017693;28;20346;-70
2021/03/10 11:05:22;;;;;;;14.87;12.50;;;;;;;6.63;59.07;98282.81;5017150;28;20204;-70
2021/03/10 11:07:50;;;;;;;14.47;12.73;;;;;;;6.91;57.68;98288.28;5014242;28;20243;-70
2021/03/10 11:10:17;;;;;;;10.80;9.57;;;;;;;6.58;56.19;98277.06;5014909;28;20667;-68
2021/03/10 11:12:44;;;;;;;10.43;9.43;;;;;;;6.37;54.98;98277.09;5017601;28;20204;-70
2021/03/10 11:15:12;;;;;;;10.80;9.80;;;;;;;6.24;55.52;98293.09;5016344;28;20239;-70
2021/03/10 11:17:39;;;;;;;9.67;8.77;;;;;;;6.13;54.88;98280.00;5011506;28;20232;-69
2021/03/10 11:20:08;;;;;;;10.63;9.40;;;;;;;5.95;55.04;98280.56;5017422;28;20736;-70
2021/03/10 11:22:55;;;;;;;10.33;9.33;;;;;;;5.98;54.35;98296.09;5009451;28;20223;-70
2021/03/10 11:25:23;;;;;;;9.73;8.83;;;;;;;6.25;54.45;98284.25;5018464;28;20236;-70
2021/03/10 11:27:50;;;;;;;9.37;8.43;;;;;;;6.13;54.90;98282.63;5015070;28;20248;-70